Time;durP1;ratioP1;P1;durP2;ratioP2;P2;SDS_P1;SDS_P2;PMS_P1;PMS_P2;Temp;Humidity;BMP_temperature;BMP_pressure;BME280_temperature;BME280_humidity;BME280_pressure;Samples;Min_cycle;Max_cycle;Signal;HPM_P1;HPM_P2
2022/07/24 00:01:56;;;;;;;7.60;6.53;;;;;;;23.56;49.31;97582.59;4907697;28;20267;-76
2022/07/24 00:04:22;;;;;;;7.32;6.63;;;;;;;23.43;49.95;97578.28;4925511;28;20189;-76
2022/07/24 00:06:47;;;;;;;6.35;5.75;;;;;;;23.34;49.74;97578.31;4925688;28;20668;-76
2022/07/24 00:09:12;;;;;;;6.90;6.30;;;;;;;23.27;50.30;97572.69;4924687;28;20192;-76
2022/07/24 00:11:38;;;;;;;6.82;6.20;;;;;;;23.21;50.46;97574.75;4924905;28;20755;-76
2022/07/24 00:14:03;;;;;;;6.45;5.82;;;;;;;23.14;50.65;97572.56;4925132;28;20670;-76
2022/07/24 00:16:29;;;;;;;6.85;6.10;;;;;;;23.07;50.33;97569.63;4925964;28;20173;-78
2022/07/24 00:18:54;;;;;;;6.40;5.85;;;;;;;23.02;50.83;97583.03;4927401;28;20350;-78
2022/07/24 00:21:20;;;;;;;7.85;7.15;;;;;;;22.95;50.71;97577.44;4928215;28;20289;-77
2022/07/24 00:23:45;;;;;;;8.20;6.90;;;;;;;22.95;51.58;97570.25;4927819;28;20280;-78
2022/07/24 00:26:11;;;;;;;7.78;6.97;;;;;;;22.90;52.04;97580.25;4927731;28;20198;-78
2022/07/24 00:28:37;;;;;;;6.72;6.07;;;;;;;22.75;51.78;97574.31;4928093;28;20637;-78
2022/07/24 00:31:02;;;;;;;7.45;6.47;;;;;;;22.65;51.97;97574.66;4927133;28;20327;-78
2022/07/24 00:33:28;;;;;;;6.82;6.13;;;;;;;22.60;52.23;97575.59;4928014;28;20200;-78
2022/07/24 00:35:53;;;;;;;7.28;6.28;;;;;;;22.62;52.27;97578.72;4895773;28;20275;-78
2022/07/24 00:38:18;;;;;;;7.95;6.60;;;;;;;22.60;52.09;97578.25;4926818;28;20536;-78
2022/07/24 00:40:44;;;;;;;7.90;6.30;;;;;;;22.53;52.33;97569.19;4911017;28;20212;-78
2022/07/24 00:43:10;;;;;;;6.95;6.35;;;;;;;22.54;52.45;97578.72;4927942;28;20216;-78
2022/07/24 00:45:36;;;;;;;6.05;5.45;;;;;;;22.53;52.44;97574.50;4927682;28;20208;-78
2022/07/24 00:48:01;;;;;;;6.65;6.05;;;;;;;22.49;52.72;97570.91;4910471;28;20674;-78
2022/07/24 00:50:27;;;;;;;7.30;6.60;;;;;;;22.41;52.79;97569.81;4894788;28;20703;-78
2022/07/24 00:52:52;;;;;;;7.53;6.82;;;;;;;22.39;53.33;97564.81;4911369;28;20188;-78
2022/07/24 00:55:18;;;;;;;7.03;6.30;;;;;;;22.37;53.35;97564.34;4910330;28;20192;-78
2022/07/24 00:57:45;;;;;;;7.20;6.50;;;;;;;22.34;53.35;97572.94;4910737;28;20214;-78
2022/07/24 01:00:12;;;;;;;7.55;6.75;;;;;;;22.33;53.66;97570.59;4924444;28;20220;-78
2022/07/24 01:02:41;;;;;;;7.95;6.95;;;;;;;22.24;53.74;97571.34;4893802;28;20363;-78
2022/07/24 01:05:08;;;;;;;7.05;6.45;;;;;;;22.22;54.19;97573.50;4911039;28;20201;-78
2022/07/24 01:07:33;;;;;;;8.38;6.97;;;;;;;22.19;54.08;97568.03;4928579;28;20540;-78
2022/07/24 01:09:59;;;;;;;7.57;6.65;;;;;;;22.16;53.93;97574.00;4896853;28;20204;-78
2022/07/24 01:12:26;;;;;;;6.95;6.18;;;;;;;22.10;53.89;97570.69;4928317;28;20778;-78
2022/07/24 01:14:51;;;;;;;7.45;6.75;;;;;;;22.03;54.23;97570.38;4928913;28;20291;-78
2022/07/24 01:17:17;;;;;;;7.50;6.78;;;;;;;22.00;54.21;97571.78;4927887;28;20250;-77
2022/07/24 01:19:42;;;;;;;7.75;6.95;;;;;;;21.96;54.28;97565.53;4926767;28;20193;-77
2022/07/24 01:22:07;;;;;;;7.57;6.80;;;;;;;21.87;54.65;97567.38;4913047;28;20305;-77
2022/07/24 01:24:33;;;;;;;6.97;6.35;;;;;;;21.89;54.68;97563.31;4927627;28;20201;-77
2022/07/24 01:26:58;;;;;;;8.40;6.63;;;;;;;21.80;54.75;97562.53;4928554;28;20196;-77
2022/07/24 01:29:24;;;;;;;7.43;6.60;;;;;;;21.79;55.28;97570.78;4927202;28;20562;-77
2022/07/24 01:31:49;;;;;;;7.60;6.90;;;;;;;21.80;54.80;97572.34;4927099;28;20577;-77
2022/07/24 01:34:14;;;;;;;6.70;6.10;;;;;;;21.75;55.22;97570.63;4911154;28;20186;-77
2022/07/24 01:36:40;;;;;;;8.02;7.22;;;;;;;21.73;55.17;97578.09;4929351;28;20290;-77
2022/07/24 01:39:06;;;;;;;7.72;6.80;;;;;;;21.68;55.35;97575.59;4910351;28;20170;-76
2022/07/24 01:41:31;;;;;;;7.55;6.85;;;;;;;21.63;55.49;97579.16;4889965;28;20198;-77
2022/07/24 01:43:57;;;;;;;7.38;6.65;;;;;;;21.56;55.79;97573.53;4921966;28;20213;-76
2022/07/24 01:46:22;;;;;;;7.13;6.53;;;;;;;21.47;55.59;97575.34;4925472;28;20284;-76
2022/07/24 01:48:48;;;;;;;7.35;6.55;;;;;;;21.41;55.68;97565.94;4925219;28;20333;-76
2022/07/24 01:51:13;;;;;;;7.40;6.78;;;;;;;21.44;56.05;97571.41;4925778;28;20353;-76
2022/07/24 01:53:39;;;;;;;8.30;7.13;;;;;;;21.36;56.02;97564.19;4925431;28;20713;-77
2022/07/24 01:56:04;;;;;;;8.10;7.22;;;;;;;21.31;55.87;97565.13;4925223;28;20284;-76
2022/07/24 01:58:29;;;;;;;7.43;6.72;;;;;;;21.35;56.21;97564.50;4909395;28;20674;-76
2022/07/24 02:00:55;;;;;;;7.72;7.03;;;;;;;21.31;56.09;97572.28;4925194;28;20239;-77
2022/07/24 02:03:21;;;;;;;6.85;6.25;;;;;;;21.28;55.96;97567.59;4924967;28;20212;-76
2022/07/24 02:05:46;;;;;;;7.28;6.45;;;;;;;21.29;56.22;97566.50;4925070;28;20272;-76
2022/07/24 02:08:12;;;;;;;8.23;6.72;;;;;;;21.27;56.25;97566.03;4925395;28;20650;-76
2022/07/24 02:10:38;;;;;;;7.63;6.93;;;;;;;21.23;56.44;97571.16;4893137;28;20252;-77
2022/07/24 02:13:04;;;;;;;7.90;6.97;;;;;;;21.18;56.91;97557.25;4925248;28;20806;-76
2022/07/24 02:15:29;;;;;;;7.47;6.78;;;;;;;21.16;56.83;97564.72;4908891;28;20282;-77
2022/07/24 02:17:57;;;;;;;7.70;6.82;;;;;;;21.07;56.99;97562.81;4924472;28;20212;-76
2022/07/24 02:20:24;;;;;;;7.93;7.13;;;;;;;21.07;56.80;97562.81;4924993;28;20251;-76
2022/07/24 02:22:49;;;;;;;10.57;7.78;;;;;;;20.99;56.99;97560.13;4924932;28;20282;-77
2022/07/24 02:25:15;;;;;;;7.82;7.03;;;;;;;20.96;57.04;97566.81;4886522;28;20705;-76
2022/07/24 02:27:40;;;;;;;8.48;6.93;;;;;;;20.95;57.06;97568.66;4925099;28;20185;-76
2022/07/24 02:30:08;;;;;;;7.97;7.20;;;;;;;20.87;57.11;97563.31;4909179;28;20256;-76
2022/07/24 02:32:34;;;;;;;7.95;7.15;;;;;;;20.88;57.20;97565.66;4924530;28;20239;-76
2022/07/24 02:34:59;;;;;;;7.07;6.38;;;;;;;20.85;57.01;97571.53;4908527;28;20222;-76
2022/07/24 02:37:24;;;;;;;7.43;6.43;;;;;;;20.83;56.82;97568.44;4924921;28;20122;-76
2022/07/24 02:39:50;;;;;;;7.30;6.60;;;;;;;20.79;56.77;97575.41;4925179;28;20375;-76
2022/07/24 02:42:15;;;;;;;9.30;7.00;;;;;;;20.74;57.02;97576.31;4908339;28;20197;-76
2022/07/24 02:44:41;;;;;;;7.85;6.78;;;;;;;20.74;56.80;97578.94;4924536;28;20283;-76
2022/07/24 02:47:06;;;;;;;8.07;7.00;;;;;;;20.73;56.50;97580.06;4926501;28;20746;-76
2022/07/24 02:49:31;;;;;;;8.68;7.30;;;;;;;20.69;57.36;97589.66;4924138;28;20170;-76
2022/07/24 02:51:57;;;;;;;7.47;6.78;;;;;;;20.67;57.14;97578.59;4908286;28;20248;-76
2022/07/24 02:54:22;;;;;;;7.68;6.97;;;;;;;20.66;57.01;97582.31;4925492;28;20183;-76
2022/07/24 02:56:48;;;;;;;8.15;7.00;;;;;;;20.58;57.55;97577.72;4927783;28;20321;-76
2022/07/24 02:59:13;;;;;;;8.05;7.25;;;;;;;20.55;57.60;97581.75;4929846;28;20284;-76
2022/07/24 03:01:38;;;;;;;7.47;6.72;;;;;;;20.56;57.66;97585.16;4911700;28;20169;-76
2022/07/24 03:04:04;;;;;;;7.72;7.00;;;;;;;20.53;57.86;97586.56;4927525;28;20698;-76
2022/07/24 03:06:29;;;;;;;7.38;6.40;;;;;;;20.53;57.65;97580.50;4927917;28;20196;-76
2022/07/24 03:08:54;;;;;;;8.18;7.45;;;;;;;20.52;57.45;97574.41;4929425;28;20166;-76
2022/07/24 03:11:20;;;;;;;7.72;7.03;;;;;;;20.47;57.34;97573.75;4927744;28;20275;-76
2022/07/24 03:13:45;;;;;;;7.22;6.53;;;;;;;20.49;56.99;97577.63;4927988;28;20271;-76
2022/07/24 03:16:11;;;;;;;7.60;6.82;;;;;;;20.41;57.24;97575.72;4929217;28;20212;-77
2022/07/24 03:18:36;;;;;;;7.20;6.20;;;;;;;20.40;57.35;97576.78;4928718;28;20366;-76
2022/07/24 03:21:01;;;;;;;7.05;6.35;;;;;;;20.36;57.21;97576.59;4925596;28;20213;-76
2022/07/24 03:23:27;;;;;;;7.57;6.68;;;;;;;20.34;57.39;97581.41;4927267;28;20316;-76
2022/07/24 03:25:54;;;;;;;8.07;7.15;;;;;;;20.28;57.43;97568.59;4927273;28;20591;-76
2022/07/24 03:28:19;;;;;;;7.13;6.43;;;;;;;20.29;57.26;97572.78;4927526;28;20185;-76
2022/07/24 03:30:44;;;;;;;7.82;7.03;;;;;;;20.25;57.11;97572.59;4927581;28;20255;-76
2022/07/24 03:33:10;;;;;;;6.38;5.75;;;;;;;20.20;57.21;97575.34;4926860;28;20710;-76
2022/07/24 03:35:35;;;;;;;7.38;6.57;;;;;;;20.24;56.96;97576.34;4927081;28;20294;-76
2022/07/24 03:38:00;;;;;;;7.35;6.53;;;;;;;20.21;57.20;97571.66;4927102;28;20288;-76
2022/07/24 03:40:26;;;;;;;7.55;6.78;;;;;;;20.15;57.52;97576.28;4927211;28;20643;-76
2022/07/24 03:42:51;;;;;;;7.72;7.03;;;;;;;20.15;57.80;97575.47;4927060;28;20170;-76
2022/07/24 03:45:17;;;;;;;7.82;6.82;;;;;;;20.09;58.07;97576.66;4924694;28;20295;-76
2022/07/24 03:47:42;;;;;;;7.45;6.63;;;;;;;20.07;57.63;97576.19;4928673;28;20217;-78
2022/07/24 03:50:07;;;;;;;7.28;6.57;;;;;;;20.01;57.40;97570.19;4928584;28;20691;-78
2022/07/24 03:52:33;;;;;;;6.75;6.05;;;;;;;19.96;57.62;97573.75;4926834;28;20688;-76
2022/07/24 03:54:58;;;;;;;7.50;6.80;;;;;;;19.94;57.87;97580.41;4926613;28;20196;-76
2022/07/24 03:57:23;;;;;;;6.70;6.10;;;;;;;19.96;57.86;97576.41;4928506;28;20177;-76
2022/07/24 03:59:49;;;;;;;7.10;6.40;;;;;;;19.96;57.97;97579.03;4943160;28;20224;-76
2022/07/24 04:02:14;;;;;;;7.93;6.70;;;;;;;19.93;57.56;97582.25;4926636;28;20165;-75
2022/07/24 04:04:40;;;;;;;7.20;6.50;;;;;;;19.86;57.97;97578.44;4926565;28;20166;-76
2022/07/24 04:07:05;;;;;;;8.45;7.50;;;;;;;19.80;58.17;97586.47;4925711;28;20251;-78
2022/07/24 04:09:31;;;;;;;8.50;6.93;;;;;;;19.79;58.28;97582.28;4927210;28;20238;-78
2022/07/24 04:11:56;;;;;;;8.07;7.28;;;;;;;19.80;58.33;97580.41;4926441;28;20208;-76
2022/07/24 04:14:22;;;;;;;7.90;7.10;;;;;;;19.78;58.28;97577.28;4928241;28;20356;-76
2022/07/24 04:16:47;;;;;;;6.97;6.30;;;;;;;19.77;58.33;97584.41;4909902;28;20208;-76
2022/07/24 04:19:13;;;;;;;9.27;6.63;;;;;;;19.77;58.24;97586.28;4910061;28;20216;-76
2022/07/24 04:21:38;;;;;;;8.02;7.28;;;;;;;19.78;57.97;97582.56;4909989;28;20364;-76
2022/07/24 04:24:04;;;;;;;8.15;7.32;;;;;;;19.77;58.23;97584.41;4928124;28;20255;-76
2022/07/24 04:26:29;;;;;;;7.60;6.80;;;;;;;19.76;58.66;97582.84;4893872;28;20674;-76
2022/07/24 04:28:55;;;;;;;7.82;6.57;;;;;;;19.81;58.65;97582.75;4927590;28;20200;-78
2022/07/24 04:31:20;;;;;;;7.18;5.78;;;;;;;19.81;58.59;97576.69;4928465;28;20265;-76
2022/07/24 04:33:45;;;;;;;7.25;6.15;;;;;;;19.88;58.57;97581.56;4925984;28;20112;-76
2022/07/24 04:36:11;;;;;;;7.93;7.10;;;;;;;19.87;59.03;97575.50;4925923;28;20727;-76
2022/07/24 04:38:36;;;;;;;6.82;6.13;;;;;;;19.93;58.65;97584.91;4910174;28;20190;-75
2022/07/24 04:41:02;;;;;;;7.20;6.43;;;;;;;19.99;58.48;97589.00;4926168;28;20204;-78
2022/07/24 04:43:27;;;;;;;7.13;6.43;;;;;;;20.02;58.64;97585.00;4923903;28;20598;-76
2022/07/24 04:45:53;;;;;;;6.85;6.22;;;;;;;20.05;58.51;97581.78;4909918;28;20170;-76
2022/07/24 04:48:18;;;;;;;6.65;5.95;;;;;;;20.09;58.58;97582.72;4909321;28;20650;-76
2022/07/24 04:50:43;;;;;;;6.95;6.10;;;;;;;20.14;58.44;97576.56;4925630;28;20712;-76
2022/07/24 04:53:09;;;;;;;7.13;5.95;;;;;;;20.17;58.30;97576.75;4925668;28;20751;-76
2022/07/24 04:55:34;;;;;;;6.28;5.55;;;;;;;20.25;57.66;97577.13;4909736;28;20251;-76
2022/07/24 04:58:00;;;;;;;6.65;5.95;;;;;;;20.30;57.27;97584.94;4926129;28;20210;-76
2022/07/24 05:00:25;;;;;;;7.88;6.70;;;;;;;20.39;57.01;97585.78;4924707;28;20255;-79
2022/07/24 05:02:50;;;;;;;7.80;7.07;;;;;;;20.52;57.21;97589.50;4892549;28;20623;-76
2022/07/24 05:05:16;;;;;;;7.82;6.88;;;;;;;20.60;56.62;97594.09;4909084;28;20168;-76
2022/07/24 05:07:41;;;;;;;7.93;7.07;;;;;;;20.58;56.69;97588.31;4908792;28;20185;-76
2022/07/24 05:10:07;;;;;;;7.50;6.72;;;;;;;20.59;56.87;97595.94;4924842;28;20211;-76
2022/07/24 05:12:32;;;;;;;7.85;6.43;;;;;;;20.64;56.46;97591.66;4892525;28;20220;-78
2022/07/24 05:14:58;;;;;;;7.10;6.50;;;;;;;20.68;56.42;97592.59;4925351;28;20794;-78
2022/07/24 05:17:23;;;;;;;7.47;6.70;;;;;;;20.71;56.90;97595.44;4909958;28;20176;-78
2022/07/24 05:19:48;;;;;;;6.97;6.28;;;;;;;20.80;57.27;97597.34;4928395;28;20251;-78
2022/07/24 05:22:14;;;;;;;6.95;6.35;;;;;;;20.85;57.36;97587.44;4927162;28;20251;-78
2022/07/24 05:24:39;;;;;;;7.07;6.30;;;;;;;21.03;56.81;97591.00;4927180;28;20199;-78
2022/07/24 05:27:05;;;;;;;6.85;6.15;;;;;;;21.04;56.10;97592.56;4925351;28;20755;-78
2022/07/24 05:29:30;;;;;;;6.63;5.75;;;;;;;21.12;55.63;97597.09;4911315;28;20299;-79
2022/07/24 05:31:55;;;;;;;7.43;6.72;;;;;;;21.21;55.16;97599.03;4909116;28;20087;-78
2022/07/24 05:34:22;;;;;;;6.97;6.28;;;;;;;21.26;55.56;97596.25;4926951;28;20697;-78
2022/07/24 05:36:47;;;;;;;7.13;6.50;;;;;;;21.35;55.89;97591.78;4926933;28;20220;-78
2022/07/24 05:39:13;;;;;;;7.22;6.53;;;;;;;21.45;55.98;97588.09;4894601;28;20533;-78
2022/07/24 05:41:38;;;;;;;7.70;6.30;;;;;;;21.58;55.78;97591.75;4926729;28;20600;-78
2022/07/24 05:44:03;;;;;;;7.13;6.43;;;;;;;21.68;55.43;97594.91;4924882;28;20215;-78
2022/07/24 05:46:29;;;;;;;6.47;5.88;;;;;;;21.74;55.25;97592.91;4911447;28;20285;-77
2022/07/24 05:48:54;;;;;;;6.97;6.38;;;;;;;21.85;55.11;97599.50;4910774;28;20200;-77
2022/07/24 05:51:20;;;;;;;6.65;5.93;;;;;;;21.93;53.99;97599.81;4929522;28;20092;-78
2022/07/24 05:53:45;;;;;;;6.68;6.07;;;;;;;22.04;53.66;97593.16;4927692;28;20642;-78
2022/07/24 05:56:10;;;;;;;6.45;5.85;;;;;;;22.15;53.69;97597.06;4891424;28;20192;-77
2022/07/24 05:58:36;;;;;;;6.80;6.10;;;;;;;22.21;52.46;97603.03;4926696;28;20271;-77
2022/07/24 06:01:01;;;;;;;6.03;5.38;;;;;;;22.30;51.96;97598.53;4910595;28;20180;-78
2022/07/24 06:03:26;;;;;;;6.10;5.50;;;;;;;22.39;51.74;97601.97;4891985;28;20154;-78
2022/07/24 06:05:52;;;;;;;6.18;5.55;;;;;;;22.47;51.84;97608.38;4927956;28;20205;-78
2022/07/24 06:08:17;;;;;;;5.68;4.88;;;;;;;22.55;50.41;97604.97;4926718;28;20189;-77
2022/07/24 06:10:43;;;;;;;6.38;5.78;;;;;;;22.72;51.18;97603.38;4910602;28;20273;-77
2022/07/24 06:13:08;;;;;;;5.30;4.45;;;;;;;22.81;50.40;97614.78;4908082;28;20238;-77
2022/07/24 06:15:34;;;;;;;5.72;5.07;;;;;;;23.00;50.07;97615.22;4925950;28;20306;-78
2022/07/24 06:17:59;;;;;;;4.78;4.38;;;;;;;23.15;49.95;97615.84;4910217;28;20212;-78
2022/07/24 06:20:25;;;;;;;5.10;4.70;;;;;;;23.28;49.33;97606.91;4910751;28;20165;-77
2022/07/24 06:22:50;;;;;;;5.50;4.88;;;;;;;23.37;48.89;97605.03;4910218;28;20204;-78
2022/07/24 06:25:16;;;;;;;4.97;4.53;;;;;;;23.50;48.89;97615.78;4910139;28;20208;-77
2022/07/24 06:27:44;;;;;;;5.80;5.20;;;;;;;23.65;48.91;97609.16;4910572;28;20275;-77
2022/07/24 06:30:23;;;;;;;6.10;5.40;;;;;;;23.64;48.29;97608.34;4928786;28;20411;-77
2022/07/24 06:32:50;;;;;;;4.80;4.40;;;;;;;23.85;47.46;97605.78;4930170;28;20611;-77
2022/07/24 06:35:15;;;;;;;4.88;4.47;;;;;;;23.95;47.65;97598.56;4910954;28;20640;-78
2022/07/24 06:37:41;;;;;;;5.35;4.85;;;;;;;24.20;47.10;97599.50;4929588;28;20339;-77
2022/07/24 06:40:07;;;;;;;5.95;5.35;;;;;;;24.24;47.09;97595.09;4913468;28;20076;-77
2022/07/24 06:42:33;;;;;;;6.05;5.05;;;;;;;24.26;47.25;97598.97;4912378;28;20203;-77
2022/07/24 06:44:58;;;;;;;5.47;4.97;;;;;;;24.38;46.63;97600.94;4927694;28;20612;-77
2022/07/24 06:47:25;;;;;;;6.13;5.57;;;;;;;24.53;46.71;97604.13;4896969;28;20200;-77
2022/07/24 06:49:54;;;;;;;5.15;4.47;;;;;;;24.78;45.95;97597.03;4928648;28;20243;-77
2022/07/24 06:52:19;;;;;;;5.90;5.40;;;;;;;24.99;45.77;97600.47;4930904;28;20216;-77
2022/07/24 06:54:45;;;;;;;6.55;5.63;;;;;;;24.91;45.65;97595.22;4912687;28;20182;-77
2022/07/24 06:57:10;;;;;;;5.88;5.20;;;;;;;25.16;45.52;97593.41;4928564;28;20174;-77
2022/07/24 06:59:36;;;;;;;4.97;4.47;;;;;;;25.41;44.88;97594.25;4928487;28;20203;-77
2022/07/24 07:02:01;;;;;;;5.47;4.97;;;;;;;25.57;44.89;97597.06;4929425;28;20182;-77
2022/07/24 07:04:27;;;;;;;4.93;4.40;;;;;;;25.92;44.36;97591.25;4928672;28;20353;-77
2022/07/24 07:06:52;;;;;;;5.63;4.90;;;;;;;26.10;44.14;97591.84;4927350;28;20690;-77
2022/07/24 07:09:17;;;;;;;5.72;5.22;;;;;;;26.31;43.92;97595.13;4928610;28;20181;-77
2022/07/24 07:11:43;;;;;;;5.40;4.80;;;;;;;26.64;42.65;97593.38;4897122;28;20666;-78
2022/07/24 07:14:08;;;;;;;5.05;4.57;;;;;;;26.81;42.45;97593.09;4931203;28;20192;-77
2022/07/24 07:16:33;;;;;;;5.30;4.80;;;;;;;26.94;41.89;97601.84;4929684;28;20126;-77
2022/07/24 07:18:59;;;;;;;5.68;5.18;;;;;;;27.01;41.97;97594.00;4929248;28;20333;-77
2022/07/24 07:21:24;;;;;;;4.80;4.40;;;;;;;27.49;39.47;97587.94;4913016;28;20287;-77
2022/07/24 07:23:49;;;;;;;4.97;4.55;;;;;;;27.78;37.72;97592.06;4914133;28;20372;-77
2022/07/24 07:26:15;;;;;;;5.45;4.95;;;;;;;28.02;37.57;97593.78;4914506;28;20283;-77
2022/07/24 07:28:40;;;;;;;5.13;4.72;;;;;;;28.23;37.27;97598.81;4930557;28;20184;-77
2022/07/24 07:31:05;;;;;;;4.95;4.55;;;;;;;28.29;37.70;97602.78;4929781;28;20231;-77
2022/07/24 07:33:31;;;;;;;5.07;4.68;;;;;;;28.36;37.35;97602.13;4930380;28;20715;-77
2022/07/24 07:35:56;;;;;;;7.18;5.65;;;;;;;28.46;37.62;97603.50;4931370;28;20191;-77
2022/07/24 07:38:22;;;;;;;4.90;4.40;;;;;;;28.54;37.22;97599.84;4929656;28;20673;-77
2022/07/24 07:40:47;;;;;;;6.75;5.45;;;;;;;28.76;37.39;97598.38;4928126;28;20169;-77
2022/07/24 07:43:12;;;;;;;6.35;5.30;;;;;;;29.09;36.13;97594.38;4929072;28;20615;-77
2022/07/24 07:45:38;;;;;;;5.35;4.75;;;;;;;29.09;36.85;97597.06;4929406;28;20441;-77
2022/07/24 07:48:03;;;;;;;5.55;5.05;;;;;;;29.30;36.63;97589.41;4912956;28;20170;-77
2022/07/24 07:50:29;;;;;;;6.75;5.88;;;;;;;29.40;36.12;97585.34;4929068;28;20563;-77
2022/07/24 07:52:54;;;;;;;5.05;4.65;;;;;;;29.52;36.34;97590.50;4896791;28;20334;-77
2022/07/24 07:55:20;;;;;;;6.10;5.60;;;;;;;29.62;36.09;97588.38;4912741;28;20273;-77
2022/07/24 07:57:45;;;;;;;6.53;5.88;;;;;;;29.89;34.92;97589.19;4928813;28;20304;-77
2022/07/24 08:00:11;;;;;;;5.47;5.07;;;;;;;29.60;36.24;97585.28;4912989;28;20239;-77
2022/07/24 08:02:37;;;;;;;6.72;6.13;;;;;;;29.85;35.27;97593.72;4896868;28;20199;-77
2022/07/24 08:05:02;;;;;;;5.90;5.40;;;;;;;30.01;35.78;97599.72;4911355;28;20349;-76
2022/07/24 08:07:28;;;;;;;5.97;5.47;;;;;;;30.17;35.72;97594.16;4927328;28;20184;-76
2022/07/24 08:09:53;;;;;;;5.55;5.15;;;;;;;30.55;33.60;97592.34;4928419;28;20282;-76
2022/07/24 08:12:18;;;;;;;6.20;5.70;;;;;;;30.72;33.88;97592.94;4928556;28;20703;-76
2022/07/24 08:14:44;;;;;;;6.40;5.90;;;;;;;30.71;33.22;97600.22;4927004;28;20295;-77
2022/07/24 08:17:09;;;;;;;6.25;5.75;;;;;;;30.63;33.65;97599.34;4926163;28;20361;-76
2022/07/24 08:19:35;;;;;;;7.55;6.28;;;;;;;30.85;33.40;97601.53;4928353;28;20220;-76
2022/07/24 08:22:00;;;;;;;6.90;5.72;;;;;;;30.96;33.29;97597.06;4926174;28;20114;-76
2022/07/24 08:24:26;;;;;;;6.70;5.53;;;;;;;31.28;33.05;97596.59;4928358;28;20182;-76
2022/07/24 08:26:53;;;;;;;5.57;5.07;;;;;;;31.15;33.14;97604.16;4911121;28;20244;-76
2022/07/24 08:29:21;;;;;;;6.15;5.65;;;;;;;31.09;33.65;97594.88;4927290;28;20345;-76
2022/07/24 08:31:46;;;;;;;6.18;5.65;;;;;;;31.39;33.11;97597.44;4928516;28;20188;-76
2022/07/24 08:34:12;;;;;;;7.28;5.47;;;;;;;31.46;33.04;97602.09;4928059;28;20381;-76
2022/07/24 08:36:38;;;;;;;6.25;5.75;;;;;;;31.92;32.41;97596.31;4894382;28;20208;-76
2022/07/24 08:39:04;;;;;;;5.85;5.43;;;;;;;32.45;32.10;97595.06;4928564;28;20219;-76
2022/07/24 08:41:35;;;;;;;6.00;5.60;;;;;;;32.47;31.97;97590.06;4925994;28;20238;-76
2022/07/24 08:44:01;;;;;;;6.47;5.88;;;;;;;32.47;32.35;97592.75;4926667;28;20242;-76
2022/07/24 08:46:28;;;;;;;6.47;5.88;;;;;;;32.54;31.32;97587.38;4926424;28;20185;-76
2022/07/24 08:48:53;;;;;;;6.03;5.40;;;;;;;32.47;31.25;97588.16;4926131;28;20184;-76
2022/07/24 08:51:19;;;;;;;5.97;5.47;;;;;;;32.66;31.01;97587.09;4925764;28;20634;-76
2022/07/24 08:53:44;;;;;;;5.88;5.47;;;;;;;32.65;31.57;97588.22;4909783;28;20134;-76
2022/07/24 08:56:10;;;;;;;5.80;5.30;;;;;;;33.11;30.13;97581.38;4909404;28;20330;-75
2022/07/24 08:58:37;;;;;;;6.28;5.75;;;;;;;32.87;30.15;97582.91;4927479;28;20204;-76
2022/07/24 09:01:03;;;;;;;5.82;5.32;;;;;;;32.98;29.97;97583.66;4925481;28;20200;-75
2022/07/24 09:03:38;;;;;;;6.53;5.93;;;;;;;32.92;29.66;97577.13;4927325;28;20192;-75
2022/07/24 09:06:07;;;;;;;7.15;6.55;;;;;;;33.13;29.69;97573.66;4925626;28;20192;-76
2022/07/24 09:08:33;;;;;;;6.35;5.85;;;;;;;33.23;29.73;97574.88;4925550;28;20596;-76
2022/07/24 09:11:04;;;;;;;6.07;5.55;;;;;;;33.15;30.48;97581.41;4926991;28;20304;-76
2022/07/24 09:14:29;;;;;;;6.13;5.63;;;;;;;33.44;29.82;97581.44;4925460;28;20442;-75
2022/07/24 09:16:23;;;;;;;6.07;5.68;;;;;;;33.49;29.55;97578.34;4919842;28;20201;-76
2022/07/24 09:19:08;;;;;;;6.75;6.15;;;;;;;33.78;29.07;97574.47;4925505;28;20197;-75
2022/07/24 09:21:35;;;;;;;7.20;5.65;;;;;;;34.02;28.42;97574.78;4925116;28;20373;-76
2022/07/24 09:24:10;;;;;;;5.63;5.22;;;;;;;34.14;28.06;97566.25;4909418;28;20267;-76
2022/07/24 09:26:46;;;;;;;6.75;6.22;;;;;;;33.48;29.46;97568.69;4925217;28;20709;-76
2022/07/24 09:29:12;;;;;;;5.25;4.70;;;;;;;33.73;28.15;97560.59;4925265;28;20244;-76
2022/07/24 09:31:58;;;;;;;5.50;5.00;;;;;;;33.97;25.97;97575.97;4892837;28;20458;-76
2022/07/24 09:34:24;;;;;;;6.05;4.97;;;;;;;34.01;26.37;97570.53;4925242;28;20361;-76
2022/07/24 09:37:02;;;;;;;5.57;5.18;;;;;;;34.15;26.02;97564.31;4925120;28;20257;-76
2022/07/24 09:39:29;;;;;;;5.18;4.70;;;;;;;34.35;25.52;97570.06;4925313;28;20704;-75
2022/07/24 09:41:56;;;;;;;5.70;5.20;;;;;;;34.43;25.31;97568.88;4924979;28;20206;-76
2022/07/24 09:44:23;;;;;;;5.45;4.95;;;;;;;34.35;25.29;97561.19;4908468;28;20187;-76
2022/07/24 09:46:55;;;;;;;5.35;4.95;;;;;;;34.29;24.87;97568.91;4925571;28;20275;-75
2022/07/24 09:49:21;;;;;;;4.93;4.57;;;;;;;34.50;25.79;97563.44;4926880;28;20185;-76
2022/07/24 09:52:10;;;;;;;5.60;5.03;;;;;;;34.73;25.25;97570.28;4908760;28;20629;-76
2022/07/24 09:54:39;;;;;;;5.50;5.00;;;;;;;34.81;24.94;97569.06;4924969;28;20170;-76
2022/07/24 09:57:28;;;;;;;5.07;4.68;;;;;;;34.52;25.79;97563.78;4925006;28;20634;-76
2022/07/24 10:00:00;;;;;;;5.15;4.75;;;;;;;34.62;26.12;97564.16;4909207;28;20275;-76
2022/07/24 10:02:27;;;;;;;5.82;5.18;;;;;;;35.03;25.35;97560.81;4924627;28;20300;-77
2022/07/24 10:04:53;;;;;;;5.30;4.60;;;;;;;35.29;25.16;97561.44;4927401;28;20208;-76
2022/07/24 10:07:21;;;;;;;5.57;5.18;;;;;;;35.50;25.02;97552.34;4897353;28;20249;-76
2022/07/24 10:09:48;;;;;;;5.20;4.80;;;;;;;35.81;24.02;97555.91;4929210;28;20166;-76
2022/07/24 10:12:24;;;;;;;5.05;4.57;;;;;;;35.79;24.14;97558.28;4928434;28;20227;-76
2022/07/24 10:14:56;;;;;;;5.15;4.75;;;;;;;35.65;24.26;97553.75;4928855;28;20286;-76
2022/07/24 10:17:34;;;;;;;6.05;5.45;;;;;;;35.58;24.87;97551.88;4928346;28;20224;-76
2022/07/24 10:20:03;;;;;;;5.30;4.82;;;;;;;35.54;25.05;97545.72;4928567;28;20634;-76
2022/07/24 10:22:38;;;;;;;5.03;4.63;;;;;;;35.21;24.32;97547.13;4928458;28;20650;-75
2022/07/24 10:25:05;;;;;;;5.45;4.97;;;;;;;35.83;24.19;97553.56;4928382;28;20224;-76
2022/07/24 10:27:35;;;;;;;4.65;4.30;;;;;;;35.86;23.14;97547.34;4928342;28;20190;-75
2022/07/24 10:30:04;;;;;;;5.18;4.78;;;;;;;36.08;23.37;97539.75;4928787;28;20653;-76
2022/07/24 10:32:30;;;;;;;5.03;4.63;;;;;;;36.17;22.76;97545.44;4928244;28;20211;-76
2022/07/24 10:34:59;;;;;;;5.00;4.60;;;;;;;35.87;23.21;97546.19;4896038;28;20368;-76
2022/07/24 10:37:46;;;;;;;4.97;4.57;;;;;;;35.84;24.16;97546.22;4928432;28;20192;-76
2022/07/24 10:40:23;;;;;;;5.03;4.70;;;;;;;36.04;23.51;97543.66;4929852;28;20200;-76
2022/07/24 10:43:10;;;;;;;5.47;5.05;;;;;;;36.22;22.55;97544.25;4911956;28;20192;-76
2022/07/24 10:45:55;;;;;;;4.70;4.20;;;;;;;36.22;23.04;97538.81;4927928;28;20189;-76
2022/07/24 10:48:20;;;;;;;5.50;5.18;;;;;;;36.02;22.63;97537.88;4929683;28;20728;-76
2022/07/24 10:51:05;;;;;;;5.50;5.10;;;;;;;35.54;22.83;97534.91;4911582;28;20291;-76
2022/07/24 10:53:37;;;;;;;4.82;4.53;;;;;;;35.26;24.14;97533.97;4928142;28;20693;-76
2022/07/24 10:56:36;;;;;;;5.13;4.78;;;;;;;35.45;22.65;97529.16;4927962;28;20249;-76
2022/07/24 10:59:07;;;;;;;5.43;5.03;;;;;;;35.39;23.12;97522.66;4920799;28;20216;-76
2022/07/24 11:01:35;;;;;;;5.00;4.50;;;;;;;35.22;23.48;97519.72;4929435;28;20173;-76
2022/07/24 11:04:02;;;;;;;4.93;4.57;;;;;;;35.62;22.95;97528.22;4929344;28;20263;-75
2022/07/24 11:06:38;;;;;;;5.25;4.75;;;;;;;35.54;23.95;97518.66;4927786;28;20180;-76
2022/07/24 11:09:04;;;;;;;4.57;4.28;;;;;;;35.89;22.68;97515.97;4927849;28;20166;-76
2022/07/24 11:11:29;;;;;;;4.88;4.40;;;;;;;36.20;23.04;97519.47;4929034;28;20215;-76
2022/07/24 11:13:57;;;;;;;5.15;4.75;;;;;;;35.91;22.87;97513.63;4927912;28;20196;-76
2022/07/24 11:16:30;;;;;;;5.20;4.70;;;;;;;36.17;22.52;97509.44;4927458;28;20208;-76
2022/07/24 11:18:55;;;;;;;4.80;4.40;;;;;;;35.81;22.40;97507.91;4927283;28;20584;-76
2022/07/24 11:21:26;;;;;;;5.20;4.80;;;;;;;35.92;22.27;97499.69;4928761;28;20240;-76
2022/07/24 11:24:19;;;;;;;4.82;4.43;;;;;;;35.93;22.52;97500.44;4911250;28;20297;-76
2022/07/24 11:26:57;;;;;;;4.80;4.40;;;;;;;35.59;22.53;97493.03;4927604;28;20287;-76
2022/07/24 11:29:32;;;;;;;5.25;4.75;;;;;;;35.67;22.21;97488.31;4923693;28;20196;-76
2022/07/24 11:32:11;;;;;;;5.07;4.75;;;;;;;35.34;23.06;97493.31;4910349;28;20248;-76
2022/07/24 11:34:37;;;;;;;4.65;4.35;;;;;;;35.18;23.07;97491.88;4911280;28;20205;-76